MSC Flavia — 3FBD7 — position and weather

sailwx.info

Track history (hours):
 
Tides and Currents Weather Stations Pressure Air Temp Water Temp Dewpoint Dewpoint Depression Visibility Wind Speed Wind Dir Waves Ship Positions

MSC Flavia

Last reported at 2016-Jul-01 22:33 UTC. Time now 2016-Jul-01 22:39 UTC.
Position N 24°27' E 118°00'.

Length 366 m; draft 9.2 m.

Type: Ship (hazmat cat A). MMSI: 373004000.

Date/timePositionNaut miles runAvg speedWind from/ knotsBaromVisibWave heightAir tempDewpointWater temp
2016-Jul-01 22:33N 24°27' E 118°00'0 0.0
2016-Jul-01 21:33N 24°27' E 118°00'0 0.0
2016-Jul-01 20:30N 24°27' E 118°00'0 0.0
2016-Jul-01 19:30N 24°27' E 118°00'0 0.1
2016-Jul-01 18:27N 24°27' E 118°00'0 0.1
2016-Jul-01 17:24N 24°27' E 118°00'0 0.0
2016-Jul-01 16:24N 24°27' E 118°00'0 0.0
2016-Jul-01 15:33N 24°27' E 118°00'3 2.8
2016-Jul-01 14:34N 24°26' E 118°03'8 8.2
2016-Jul-01 13:34N 24°21' E 118°11'6 6.1
2016-Jul-01 12:34N 24°17' E 118°15'7 6.5
2016-Jul-01 11:31N 24°16' E 118°23'1 0.6
2016-Jul-01 10:14N 24°15' E 118°23'0 0.1
2016-Jul-01 09:32N 24°15' E 118°23'0 0.0
2016-Jul-01 08:26N 24°15' E 118°23'0 0.0
2016-Jul-01 06:26N 24°15' E 118°23'0 0.1
2016-Jul-01 04:08N 24°15' E 118°23'0 0.0
2016-Jul-01 03:20N 24°15' E 118°23'0 0.0
2016-Jul-01 02:32N 24°15' E 118°23'0 0.1
2016-Jul-01 01:32N 24°15' E 118°23'0 0.0
2016-Jun-30 22:32N 24°15' E 118°23'0 0.1
2016-Jun-30 21:26N 24°15' E 118°23'0 0.0
2016-Jun-30 20:32N 24°15' E 118°23'0 0.0
2016-Jun-30 19:32N 24°15' E 118°23'0 0.0
2016-Jun-30 18:32N 24°15' E 118°23'0 0.0
2016-Jun-30 17:32N 24°15' E 118°23'0 0.1
2016-Jun-30 16:26N 24°15' E 118°23'0 0.1
2016-Jun-30 15:26N 24°15' E 118°23'0 0.0
2016-Jun-30 14:20N 24°15' E 118°23'0 0.0
2016-Jun-30 10:33N 24°15' E 118°23'1010.1
2016-Jun-30 09:33N 24°17' E 118°34'1513.0
2016-Jun-30 08:25N 24°23' E 118°49'1211.2
2016-Jun-30 07:18N 24°29' E 119°01'7 9.7
2016-Jun-30 06:33N 24°32' E 119°08'10 9.9
2016-Jun-30 05:31N 24°36' E 119°19'396 9.0
2016-Jun-28 09:23N 30°23' E 122°54'8 9.3
2016-Jun-28 08:32N 30°26' E 122°46'9 9.0
2016-Jun-28 07:33N 30°29' E 122°37'2 0.2
2016-Jun-27 15:27N 30°31' E 122°34'  
2016-Jun-24 02:21N 30°28' E 122°38'0 0.1
2016-Jun-24 01:21N 30°28' E 122°38'0 0.1
2016-Jun-24 00:33N 30°28' E 122°39'0 0.0
2016-Jun-23 12:30N 30°28' E 122°38'0 0.1
2016-Jun-23 11:33N 30°28' E 122°38'0 0.0
2016-Jun-23 10:30N 30°28' E 122°39'0 0.0
2016-Jun-23 09:33N 30°28' E 122°39'0 0.0
2016-Jun-23 08:27N 30°28' E 122°39'0 0.1
2016-Jun-23 05:24N 30°28' E 122°38'0 0.1
2016-Jun-23 04:30N 30°28' E 122°38'0 0.0
2016-Jun-23 03:30N 30°28' E 122°38'0 0.0
2016-Jun-23 02:27N 30°28' E 122°38'0 0.0
2016-Jun-23 01:27N 30°28' E 122°38'3 0.2
2016-Jun-22 10:31N 30°27' E 122°42'27 6.7
2016-Jun-22 06:31N 30°09' E 122°19'7 3.0
2016-Jun-22 04:17N 30°15' E 122°14'  
Track history (hours):
 
Tides and Currents Weather Stations Pressure Air Temp Water Temp Dewpoint Dewpoint Depression Visibility Wind Speed Wind Dir Waves Ship Positions

MSC Flavia

Last reported at 2016-Jul-01 22:33 UTC. Time now 2016-Jul-01 22:39 UTC.
Position N 24°27' E 118°00'.

Length 366 m; draft 9.2 m.

Type: Ship (hazmat cat A). MMSI: 373004000.

Date/timePositionNaut miles runAvg speedWind from/ knotsBaromVisibWave heightAir tempDewpointWater temp
2016-Jul-01 22:33N 24°27' E 118°00'0 0.0
2016-Jul-01 21:33N 24°27' E 118°00'0 0.0
2016-Jul-01 20:30N 24°27' E 118°00'0 0.0
2016-Jul-01 19:30N 24°27' E 118°00'0 0.1
2016-Jul-01 18:27N 24°27' E 118°00'0 0.1
2016-Jul-01 17:24N 24°27' E 118°00'0 0.0
2016-Jul-01 16:24N 24°27' E 118°00'0 0.0
2016-Jul-01 15:33N 24°27' E 118°00'3 2.8
2016-Jul-01 14:34N 24°26' E 118°03'8 8.2
2016-Jul-01 13:34N 24°21' E 118°11'6 6.1
2016-Jul-01 12:34N 24°17' E 118°15'7 6.5
2016-Jul-01 11:31N 24°16' E 118°23'1 0.6
2016-Jul-01 10:14N 24°15' E 118°23'0 0.1
2016-Jul-01 09:32N 24°15' E 118°23'0 0.0
2016-Jul-01 08:26N 24°15' E 118°23'0 0.0
2016-Jul-01 06:26N 24°15' E 118°23'0 0.1
2016-Jul-01 04:08N 24°15' E 118°23'0 0.0
2016-Jul-01 03:20N 24°15' E 118°23'0 0.0
2016-Jul-01 02:32N 24°15' E 118°23'0 0.1
2016-Jul-01 01:32N 24°15' E 118°23'0 0.0
2016-Jun-30 22:32N 24°15' E 118°23'0 0.1
2016-Jun-30 21:26N 24°15' E 118°23'0 0.0
2016-Jun-30 20:32N 24°15' E 118°23'0 0.0
2016-Jun-30 19:32N 24°15' E 118°23'0 0.0
2016-Jun-30 18:32N 24°15' E 118°23'0 0.0
2016-Jun-30 17:32N 24°15' E 118°23'0 0.1
2016-Jun-30 16:26N 24°15' E 118°23'0 0.1
2016-Jun-30 15:26N 24°15' E 118°23'0 0.0
2016-Jun-30 14:20N 24°15' E 118°23'0 0.0
2016-Jun-30 10:33N 24°15' E 118°23'1010.1
2016-Jun-30 09:33N 24°17' E 118°34'1513.0
2016-Jun-30 08:25N 24°23' E 118°49'1211.2
2016-Jun-30 07:18N 24°29' E 119°01'7 9.7
2016-Jun-30 06:33N 24°32' E 119°08'10 9.9
2016-Jun-30 05:31N 24°36' E 119°19'396 9.0
2016-Jun-28 09:23N 30°23' E 122°54'8 9.3
2016-Jun-28 08:32N 30°26' E 122°46'9 9.0
2016-Jun-28 07:33N 30°29' E 122°37'2 0.2
2016-Jun-27 15:27N 30°31' E 122°34'  
2016-Jun-24 02:21N 30°28' E 122°38'0 0.1
2016-Jun-24 01:21N 30°28' E 122°38'0 0.1
2016-Jun-24 00:33N 30°28' E 122°39'0 0.0
2016-Jun-23 12:30N 30°28' E 122°38'0 0.1
2016-Jun-23 11:33N 30°28' E 122°38'0 0.0
2016-Jun-23 10:30N 30°28' E 122°39'0 0.0
2016-Jun-23 09:33N 30°28' E 122°39'0 0.0
2016-Jun-23 08:27N 30°28' E 122°39'0 0.1
2016-Jun-23 05:24N 30°28' E 122°38'0 0.1
2016-Jun-23 04:30N 30°28' E 122°38'0 0.0
2016-Jun-23 03:30N 30°28' E 122°38'0 0.0
2016-Jun-23 02:27N 30°28' E 122°38'0 0.0
2016-Jun-23 01:27N 30°28' E 122°38'3 0.2
2016-Jun-22 10:31N 30°27' E 122°42'27 6.7
2016-Jun-22 06:31N 30°09' E 122°19'7 3.0
2016-Jun-22 04:17N 30°15' E 122°14'  

Dump ship's entire track history